createdAt,value
2019-01-19T00:00:43.672Z,938.96
2019-01-19T00:01:51.814Z,938.89
2019-01-19T00:02:59.758Z,938.90
2019-01-19T00:04:07.815Z,938.88
2019-01-19T00:05:15.880Z,938.86
2019-01-19T00:06:23.968Z,938.87
2019-01-19T00:07:32.077Z,938.82
2019-01-19T00:08:40.011Z,938.82
2019-01-19T00:09:48.077Z,938.83
2019-01-19T00:10:56.121Z,938.85
2019-01-19T00:12:04.259Z,938.83
2019-01-19T00:13:12.320Z,938.82
2019-01-19T00:14:20.283Z,938.84
2019-01-19T00:15:28.380Z,938.82
2019-01-19T00:16:36.372Z,938.82
2019-01-19T00:17:44.441Z,938.81
2019-01-19T00:18:52.483Z,938.84
2019-01-19T00:20:00.512Z,938.82
2019-01-19T00:21:08.575Z,938.79
2019-01-19T00:22:16.769Z,938.81
2019-01-19T00:23:24.677Z,938.77
2019-01-19T00:24:32.738Z,938.78
2019-01-19T00:25:40.764Z,938.81
2019-01-19T00:26:48.839Z,938.86
2019-01-19T00:27:56.870Z,938.77
2019-01-19T00:29:05.024Z,938.76
2019-01-19T00:30:12.992Z,938.75
2019-01-19T00:31:21.059Z,938.78
2019-01-19T00:32:29.174Z,938.75
2019-01-19T00:33:37.142Z,938.76
2019-01-19T00:34:45.185Z,938.76
2019-01-19T00:35:53.234Z,938.77
2019-01-19T00:37:01.344Z,938.77
2019-01-19T00:38:09.334Z,938.81
2019-01-19T00:39:17.397Z,938.77
2019-01-19T00:40:25.476Z,938.77
2019-01-19T00:41:33.485Z,938.74
2019-01-19T00:42:41.591Z,938.79
2019-01-19T00:43:49.588Z,938.76
2019-01-19T00:44:57.756Z,938.79
2019-01-19T00:46:05.686Z,938.79
2019-01-19T00:47:13.835Z,938.74
2019-01-19T00:48:21.777Z,938.78
2019-01-19T00:49:29.873Z,938.76
2019-01-19T00:50:37.887Z,938.76
2019-01-19T00:51:45.932Z,938.80
2019-01-19T00:52:54.084Z,938.81
2019-01-19T00:54:02.044Z,938.80
2019-01-19T00:55:10.095Z,938.82
2019-01-19T00:56:18.133Z,938.79
2019-01-19T00:57:26.282Z,938.81
2019-01-19T00:58:34.251Z,938.81
2019-01-19T00:59:42.298Z,938.77
2019-01-19T01:00:50.448Z,938.83
2019-01-19T01:01:58.407Z,938.85
2019-01-19T01:03:06.614Z,938.80
2019-01-19T01:04:14.507Z,938.81
2019-01-19T01:05:25.314Z,938.83
2019-01-19T01:06:30.560Z,938.83
2019-01-19T01:07:38.740Z,938.84
2019-01-19T01:08:46.691Z,938.80
2019-01-19T01:09:54.739Z,938.85
2019-01-19T01:11:02.789Z,938.78
2019-01-19T01:12:10.819Z,938.81
2019-01-19T01:13:18.987Z,938.76
2019-01-19T01:14:26.946Z,938.79
2019-01-19T01:15:34.993Z,938.86
2019-01-19T01:16:43.132Z,938.82
2019-01-19T01:17:51.121Z,938.82
2019-01-19T01:18:59.151Z,938.84
2019-01-19T01:20:07.195Z,938.84
2019-01-19T01:21:15.248Z,938.88
2019-01-19T01:22:23.292Z,938.87
2019-01-19T01:23:31.399Z,938.87
2019-01-19T01:24:39.395Z,938.87
2019-01-19T01:25:47.436Z,938.90
2019-01-19T01:26:55.507Z,938.88
2019-01-19T01:28:03.619Z,938.86
2019-01-19T01:29:11.608Z,938.89
2019-01-19T01:30:19.660Z,938.89
2019-01-19T01:31:27.704Z,938.85
2019-01-19T01:32:35.843Z,938.86
2019-01-19T01:33:43.898Z,938.92
2019-01-19T01:34:51.842Z,938.89
2019-01-19T01:35:59.891Z,938.93
2019-01-19T01:37:07.945Z,938.90
2019-01-19T01:38:16.085Z,938.93
2019-01-19T01:39:24.046Z,938.91
2019-01-19T01:40:32.095Z,938.91
2019-01-19T01:41:40.165Z,938.95
2019-01-19T01:42:48.210Z,938.95
2019-01-19T01:43:56.349Z,938.95
2019-01-19T01:45:04.291Z,938.90
2019-01-19T01:46:12.356Z,938.93
2019-01-19T01:47:20.400Z,938.92
2019-01-19T01:48:28.519Z,938.92
2019-01-19T01:49:36.500Z,938.94
2019-01-19T01:50:44.567Z,938.93
2019-01-19T01:51:52.593Z,938.94
2019-01-19T01:53:00.638Z,938.91
2019-01-19T01:54:08.815Z,938.91
2019-01-19T01:55:16.762Z,938.89
2019-01-19T01:56:24.797Z,938.90
2019-01-19T01:57:32.860Z,938.83
2019-01-19T01:58:40.932Z,938.83
2019-01-19T01:59:48.951Z,938.82
2019-01-19T02:00:56.996Z,938.83
2019-01-19T02:02:05.068Z,938.85
2019-01-19T02:03:13.155Z,938.85
2019-01-19T02:04:21.245Z,938.87
2019-01-19T02:05:29.212Z,938.88
2019-01-19T02:06:37.246Z,938.84
2019-01-19T02:07:45.309Z,938.78
2019-01-19T02:08:53.454Z,938.80
2019-01-19T02:10:01.394Z,938.77
2019-01-19T02:11:09.454Z,938.76
2019-01-19T02:12:17.496Z,938.77
2019-01-19T02:13:25.565Z,938.75
2019-01-19T02:14:33.612Z,938.69
2019-01-19T02:15:41.708Z,938.71
2019-01-19T02:16:49.696Z,938.71
2019-01-19T02:17:57.857Z,938.70
2019-01-19T02:19:05.913Z,938.64
2019-01-19T02:20:13.867Z,938.66
2019-01-19T02:21:21.910Z,938.66
2019-01-19T02:22:29.967Z,938.69
2019-01-19T02:23:38.036Z,938.63
2019-01-19T02:24:46.066Z,938.63
2019-01-19T02:25:54.116Z,938.66
2019-01-19T02:27:02.164Z,938.64
2019-01-19T02:28:10.200Z,938.69
2019-01-19T02:29:18.372Z,938.65
2019-01-19T02:30:26.320Z,938.65
2019-01-19T02:31:34.373Z,938.61
2019-01-19T02:32:42.513Z,938.62
2019-01-19T02:33:50.466Z,938.59
2019-01-19T02:34:58.520Z,938.62
2019-01-19T02:36:06.577Z,938.61
2019-01-19T02:37:14.608Z,938.62
2019-01-19T02:38:22.665Z,938.63
2019-01-19T02:39:30.792Z,938.64
2019-01-19T02:40:38.766Z,938.64
2019-01-19T02:41:46.819Z,938.60
2019-01-19T02:42:54.871Z,938.60
2019-01-19T02:44:03.021Z,938.59
2019-01-19T02:45:10.978Z,938.56
2019-01-19T02:46:19.024Z,938.55
2019-01-19T02:47:27.090Z,938.56
2019-01-19T02:48:35.116Z,938.53
2019-01-19T02:49:43.276Z,938.56
2019-01-19T02:50:51.208Z,938.56
2019-01-19T02:51:59.286Z,938.49
2019-01-19T02:53:07.312Z,938.55
2019-01-19T02:54:15.476Z,938.50
2019-01-19T02:55:23.433Z,938.46
2019-01-19T02:56:31.472Z,938.49
2019-01-19T02:57:39.543Z,938.50
2019-01-19T02:58:47.591Z,938.53
2019-01-19T02:59:55.731Z,938.48
2019-01-19T03:01:03.691Z,938.52
2019-01-19T03:02:11.731Z,938.51
2019-01-19T03:03:19.877Z,938.48
2019-01-19T03:04:27.916Z,938.50
2019-01-19T03:05:35.887Z,938.45
2019-01-19T03:06:43.929Z,938.45
2019-01-19T03:07:51.985Z,938.47
2019-01-19T03:09:00.029Z,938.44
2019-01-19T03:10:08.167Z,938.41
2019-01-19T03:11:16.194Z,938.41
2019-01-19T03:12:24.189Z,938.38
2019-01-19T03:13:32.231Z,938.41
2019-01-19T03:14:40.356Z,938.38
2019-01-19T03:15:48.324Z,938.36
2019-01-19T03:16:56.379Z,938.37
2019-01-19T03:18:04.421Z,938.34
2019-01-19T03:19:12.575Z,938.36
2019-01-19T03:20:20.596Z,938.36
2019-01-19T03:21:28.579Z,938.38
2019-01-19T03:22:36.637Z,938.37
2019-01-19T03:23:44.702Z,938.35
2019-01-19T03:24:52.815Z,938.35
2019-01-19T03:26:00.758Z,938.36
2019-01-19T03:27:08.832Z,938.30
2019-01-19T03:28:16.872Z,938.27
2019-01-19T03:29:24.929Z,938.32
2019-01-19T03:30:33.025Z,938.27
2019-01-19T03:31:41.006Z,938.32
2019-01-19T03:32:49.065Z,938.28
2019-01-19T03:33:57.257Z,938.28
2019-01-19T03:35:05.292Z,938.29
2019-01-19T03:36:13.231Z,938.27
2019-01-19T03:37:21.270Z,938.31
2019-01-19T03:38:29.329Z,938.27
2019-01-19T03:39:37.376Z,938.29
2019-01-19T03:40:45.515Z,938.29
2019-01-19T03:41:53.499Z,938.29
2019-01-19T03:43:01.522Z,938.27
2019-01-19T03:44:09.589Z,938.28
2019-01-19T03:45:17.675Z,938.22
2019-01-19T03:46:25.694Z,938.16
2019-01-19T03:47:33.731Z,938.22
2019-01-19T03:48:41.788Z,938.18
2019-01-19T03:49:49.823Z,938.20
2019-01-19T03:50:57.982Z,938.21
2019-01-19T03:52:05.938Z,938.23
2019-01-19T03:53:13.986Z,938.26
2019-01-19T03:54:22.028Z,938.19
2019-01-19T03:55:30.190Z,938.24
2019-01-19T03:56:38.125Z,938.24
2019-01-19T03:57:46.163Z,938.24
2019-01-19T03:58:54.213Z,938.22
2019-01-19T04:00:02.277Z,938.21
2019-01-19T04:01:10.428Z,938.18
2019-01-19T04:02:18.369Z,938.20
2019-01-19T04:03:26.740Z,938.17
2019-01-19T04:04:34.530Z,938.15
2019-01-19T04:05:42.624Z,938.16
2019-01-19T04:06:50.712Z,938.12
2019-01-19T04:07:58.631Z,938.13
2019-01-19T04:09:06.680Z,938.11
2019-01-19T04:10:14.717Z,938.16
2019-01-19T04:11:22.884Z,938.18
2019-01-19T04:12:30.805Z,938.14
2019-01-19T04:13:38.870Z,938.16
2019-01-19T04:14:46.932Z,938.20
2019-01-19T04:15:55.123Z,938.14
2019-01-19T04:17:03.021Z,938.19
2019-01-19T04:18:11.116Z,938.13
2019-01-19T04:19:19.123Z,938.17
2019-01-19T04:20:27.175Z,938.17
2019-01-19T04:21:35.243Z,938.15
2019-01-19T04:22:43.417Z,938.13
2019-01-19T04:23:51.314Z,938.15
2019-01-19T04:24:59.356Z,938.15
2019-01-19T04:26:07.523Z,938.17
2019-01-19T04:27:15.479Z,938.14
2019-01-19T04:28:23.527Z,938.14
2019-01-19T04:29:31.644Z,938.11
2019-01-19T04:30:39.618Z,938.13
2019-01-19T04:31:47.672Z,938.12
2019-01-19T04:32:55.731Z,938.11
2019-01-19T04:34:03.779Z,938.14
2019-01-19T04:35:11.836Z,938.12
2019-01-19T04:36:21.595Z,938.10
2019-01-19T04:37:28.015Z,938.10
2019-01-19T04:38:35.966Z,938.10
2019-01-19T04:39:44.027Z,938.08
2019-01-19T04:40:52.173Z,938.10
2019-01-19T04:42:00.115Z,938.10
2019-01-19T04:43:08.186Z,938.12
2019-01-19T04:44:16.224Z,938.09
2019-01-19T04:45:24.280Z,938.12
2019-01-19T04:46:32.416Z,938.09
2019-01-19T04:47:40.360Z,938.13
2019-01-19T04:48:48.413Z,938.03
2019-01-19T04:49:56.483Z,938.04
2019-01-19T04:51:04.773Z,938.06
2019-01-19T04:52:12.572Z,938.07
2019-01-19T04:53:20.659Z,938.03
2019-01-19T04:54:28.688Z,938.07
2019-01-19T04:55:36.712Z,938.03
2019-01-19T04:56:44.863Z,938.04
2019-01-19T04:57:52.798Z,937.97
2019-01-19T04:59:00.851Z,938.02
2019-01-19T05:00:08.923Z,938.00
2019-01-19T05:01:17.124Z,937.96
2019-01-19T05:02:25.016Z,938.00
2019-01-19T05:03:33.070Z,937.98
2019-01-19T05:04:41.117Z,937.96
2019-01-19T05:05:49.175Z,937.98
2019-01-19T05:06:57.300Z,937.98
2019-01-19T05:08:05.373Z,937.95
2019-01-19T05:09:13.321Z,937.96
2019-01-19T05:10:21.379Z,937.99
2019-01-19T05:11:29.519Z,938.00
2019-01-19T05:12:37.473Z,937.96
2019-01-19T05:13:45.522Z,937.97
2019-01-19T05:14:53.570Z,937.93
2019-01-19T05:16:01.622Z,937.93
2019-01-19T05:17:09.764Z,937.90
2019-01-19T05:18:17.729Z,937.88
2019-01-19T05:19:25.805Z,937.84
2019-01-19T05:20:33.821Z,937.82
2019-01-19T05:21:41.927Z,937.86
2019-01-19T05:22:50.025Z,937.84
2019-01-19T05:23:57.983Z,937.88
2019-01-19T05:25:06.019Z,937.87
2019-01-19T05:26:14.068Z,937.88
2019-01-19T05:27:22.233Z,937.92
2019-01-19T05:28:30.185Z,937.94
2019-01-19T05:29:38.235Z,937.88
2019-01-19T05:30:46.270Z,937.88
2019-01-19T05:31:54.418Z,937.91
2019-01-19T05:33:02.378Z,937.86
2019-01-19T05:34:10.423Z,937.86
2019-01-19T05:35:18.474Z,937.86
2019-01-19T05:36:26.518Z,937.85
2019-01-19T05:37:34.672Z,937.85
2019-01-19T05:38:42.636Z,937.80
2019-01-19T05:39:50.657Z,937.81
2019-01-19T05:40:58.721Z,937.82
2019-01-19T05:42:06.879Z,937.82
2019-01-19T05:43:14.835Z,937.80
2019-01-19T05:44:22.887Z,937.81
2019-01-19T05:45:30.894Z,937.87
2019-01-19T05:46:38.974Z,937.83
2019-01-19T05:47:47.126Z,937.79
2019-01-19T05:48:55.099Z,937.84
2019-01-19T05:50:03.141Z,937.84
2019-01-19T05:51:11.156Z,937.81
2019-01-19T05:52:19.339Z,937.84
2019-01-19T05:53:27.386Z,937.81
2019-01-19T05:54:35.340Z,937.85
2019-01-19T05:55:43.381Z,937.87
2019-01-19T05:56:51.416Z,937.84
2019-01-19T05:57:59.584Z,937.85
2019-01-19T05:59:07.929Z,937.81
2019-01-19T06:00:15.579Z,937.83
2019-01-19T06:01:23.647Z,937.79
2019-01-19T06:02:31.766Z,937.84
2019-01-19T06:03:39.748Z,937.79
2019-01-19T06:04:48.099Z,937.84
2019-01-19T06:05:55.886Z,937.79
2019-01-19T06:07:03.889Z,937.83
2019-01-19T06:08:12.032Z,937.89
2019-01-19T06:09:19.991Z,937.86
2019-01-19T06:10:28.045Z,937.90
2019-01-19T06:11:36.102Z,937.87
2019-01-19T06:12:44.201Z,937.85
2019-01-19T06:13:52.190Z,937.84
2019-01-19T06:15:00.248Z,937.84
2019-01-19T06:16:08.301Z,937.81
2019-01-19T06:17:16.353Z,937.85
2019-01-19T06:18:24.388Z,937.84
2019-01-19T06:19:32.440Z,937.87
2019-01-19T06:20:40.479Z,937.86
2019-01-19T06:21:48.555Z,937.81
2019-01-19T06:22:57.021Z,937.82
2019-01-19T06:24:04.650Z,937.85
2019-01-19T06:25:12.696Z,937.87
2019-01-19T06:26:20.740Z,937.88
2019-01-19T06:27:28.883Z,937.86
2019-01-19T06:28:36.837Z,937.85
2019-01-19T06:29:44.957Z,937.89
2019-01-19T06:30:52.944Z,937.87
2019-01-19T06:32:01.575Z,937.86
2019-01-19T06:33:09.132Z,937.86
2019-01-19T06:34:17.098Z,937.86
2019-01-19T06:35:25.167Z,937.83
2019-01-19T06:36:33.194Z,937.86
2019-01-19T06:37:41.321Z,937.82
2019-01-19T06:38:49.416Z,937.82
2019-01-19T06:39:57.374Z,937.82
2019-01-19T06:41:05.405Z,937.80
2019-01-19T06:42:13.456Z,937.83
2019-01-19T06:43:21.594Z,937.80
2019-01-19T06:44:29.558Z,937.78
2019-01-19T06:45:37.605Z,937.79
2019-01-19T06:46:45.660Z,937.77
2019-01-19T06:47:53.793Z,937.79
2019-01-19T06:49:02.224Z,937.78
2019-01-19T06:50:09.816Z,937.79
2019-01-19T06:51:17.874Z,937.77
2019-01-19T06:52:25.906Z,937.82
2019-01-19T06:53:34.014Z,937.86
2019-01-19T06:54:42.115Z,937.88
2019-01-19T06:55:50.060Z,937.83
2019-01-19T06:56:58.117Z,937.82
2019-01-19T06:58:06.213Z,937.87
2019-01-19T06:59:17.425Z,937.89
2019-01-19T07:00:22.270Z,937.87
2019-01-19T07:01:30.310Z,937.89
2019-01-19T07:02:38.429Z,937.84
2019-01-19T07:03:46.514Z,937.87
2019-01-19T07:04:54.509Z,937.83
2019-01-19T07:06:02.522Z,937.87
2019-01-19T07:07:10.600Z,937.90
2019-01-19T07:08:20.245Z,937.86
2019-01-19T07:09:26.666Z,937.89
2019-01-19T07:10:34.800Z,937.90
2019-01-19T07:11:42.829Z,937.86
2019-01-19T07:12:50.811Z,937.90
2019-01-19T07:13:59.109Z,937.90
2019-01-19T07:15:06.919Z,937.89
2019-01-19T07:16:15.025Z,937.86
2019-01-19T07:17:23.004Z,937.90
2019-01-19T07:18:31.100Z,937.90
2019-01-19T07:19:39.115Z,937.90
2019-01-19T07:20:47.219Z,937.90
2019-01-19T07:21:55.244Z,937.89
2019-01-19T07:23:03.280Z,937.89
2019-01-19T07:24:11.358Z,937.90
2019-01-19T07:25:19.370Z,937.87
2019-01-19T07:26:27.523Z,937.84
2019-01-19T07:27:35.490Z,937.86
2019-01-19T07:28:43.629Z,937.85
2019-01-19T07:29:51.608Z,937.88
2019-01-19T07:30:59.623Z,937.88
2019-01-19T07:32:07.683Z,937.86
2019-01-19T07:33:15.733Z,937.86
2019-01-19T07:34:23.894Z,937.87
2019-01-19T07:35:31.817Z,937.91
2019-01-19T07:36:39.885Z,937.93
2019-01-19T07:37:47.942Z,937.92
2019-01-19T07:38:56.053Z,937.92
2019-01-19T07:40:04.045Z,937.96
2019-01-19T07:41:12.090Z,937.96
2019-01-19T07:42:20.238Z,937.94
2019-01-19T07:43:28.197Z,937.91
2019-01-19T07:44:36.348Z,937.93
2019-01-19T07:45:44.303Z,937.94
2019-01-19T07:46:56.055Z,937.95
2019-01-19T07:48:00.402Z,937.95
2019-01-19T07:49:08.539Z,937.95
2019-01-19T07:50:16.512Z,937.92
2019-01-19T07:51:25.702Z,937.92
2019-01-19T07:52:32.628Z,937.96
2019-01-19T07:53:40.628Z,937.96
2019-01-19T07:54:49.171Z,937.97
2019-01-19T07:55:56.774Z,937.96
2019-01-19T07:57:04.817Z,937.98
2019-01-19T07:58:12.974Z,937.95
2019-01-19T07:59:21.008Z,937.94
2019-01-19T08:00:28.969Z,937.95
2019-01-19T08:01:37.012Z,938.01
2019-01-19T08:02:45.068Z,937.98
2019-01-19T08:03:53.596Z,937.96
2019-01-19T08:05:01.664Z,937.96
2019-01-19T08:06:09.223Z,938.00
2019-01-19T08:07:17.547Z,938.01
2019-01-19T08:08:26.875Z,938.01
2019-01-19T08:09:33.474Z,938.01
2019-01-19T08:10:41.561Z,938.01
2019-01-19T08:11:49.492Z,938.00
2019-01-19T08:12:57.609Z,938.04
2019-01-19T08:14:05.568Z,937.97
2019-01-19T08:15:13.693Z,937.99
2019-01-19T08:16:21.682Z,937.98
2019-01-19T08:17:29.759Z,938.03
2019-01-19T08:18:37.787Z,938.05
2019-01-19T08:19:46.920Z,938.04
2019-01-19T08:20:53.909Z,938.06
2019-01-19T08:22:02.206Z,938.12
2019-01-19T08:23:10.492Z,938.13
2019-01-19T08:24:18.565Z,938.14
2019-01-19T08:25:26.113Z,938.12
2019-01-19T08:26:34.137Z,938.17
2019-01-19T08:27:42.278Z,938.17
2019-01-19T08:28:50.569Z,938.18
2019-01-19T08:29:59.132Z,938.16
2019-01-19T08:31:06.854Z,938.18
2019-01-19T08:32:14.554Z,938.17
2019-01-19T08:33:22.504Z,938.20
2019-01-19T08:34:30.514Z,938.21
2019-01-19T08:35:38.547Z,938.18
2019-01-19T08:36:47.101Z,938.19
2019-01-19T08:37:54.989Z,938.17
2019-01-19T08:39:02.692Z,938.17
2019-01-19T08:40:11.385Z,938.19
2019-01-19T08:41:19.924Z,938.14
2019-01-19T08:42:28.500Z,938.16
2019-01-19T08:43:34.911Z,938.16
2019-01-19T08:44:43.082Z,938.14
2019-01-19T08:45:51.385Z,938.14
2019-01-19T08:46:59.076Z,938.15
2019-01-19T08:48:07.580Z,938.13
2019-01-19T08:49:15.182Z,938.16
2019-01-19T08:50:23.285Z,938.23
2019-01-19T08:51:31.767Z,938.21
2019-01-19T08:52:39.962Z,938.22
2019-01-19T08:53:47.519Z,938.25
2019-01-19T08:54:55.564Z,938.20
2019-01-19T08:56:03.502Z,938.22
2019-01-19T08:57:11.544Z,938.25
2019-01-19T08:58:19.702Z,938.23
2019-01-19T08:59:27.708Z,938.20
2019-01-19T09:00:35.777Z,938.24
2019-01-19T09:01:43.766Z,938.22
2019-01-19T09:02:51.816Z,938.23
2019-01-19T09:04:00.411Z,938.23
2019-01-19T09:05:08.327Z,938.24
2019-01-19T09:06:15.960Z,938.22
2019-01-19T09:07:24.027Z,938.22
2019-01-19T09:08:32.038Z,938.19
2019-01-19T09:09:40.469Z,938.26
2019-01-19T09:10:48.256Z,938.22
2019-01-19T09:11:56.271Z,938.21
2019-01-19T09:13:04.271Z,938.29
2019-01-19T09:14:12.726Z,938.24
2019-01-19T09:15:20.433Z,938.21
2019-01-19T09:16:28.479Z,938.25
2019-01-19T09:17:36.469Z,938.21
2019-01-19T09:18:44.683Z,938.20
2019-01-19T09:19:52.582Z,938.24
2019-01-19T09:21:00.712Z,938.26
2019-01-19T09:22:08.693Z,938.27
2019-01-19T09:23:16.741Z,938.24
2019-01-19T09:24:24.792Z,938.24
2019-01-19T09:25:32.959Z,938.22
2019-01-19T09:26:40.917Z,938.27
2019-01-19T09:27:48.941Z,938.27
2019-01-19T09:28:57.005Z,938.30
2019-01-19T09:30:05.146Z,938.29
2019-01-19T09:31:13.226Z,938.25
2019-01-19T09:32:21.168Z,938.27
2019-01-19T09:33:29.240Z,938.30
2019-01-19T09:34:37.271Z,938.33
2019-01-19T09:35:45.358Z,938.34
2019-01-19T09:36:53.367Z,938.34
2019-01-19T09:38:01.401Z,938.33
2019-01-19T09:39:09.513Z,938.31
2019-01-19T09:40:17.515Z,938.33
2019-01-19T09:41:25.917Z,938.33
2019-01-19T09:42:33.646Z,938.30
2019-01-19T09:43:41.721Z,938.36
2019-01-19T09:44:49.754Z,938.33
2019-01-19T09:45:57.903Z,938.35
2019-01-19T09:47:05.853Z,938.37
2019-01-19T09:48:13.891Z,938.40
2019-01-19T09:49:21.956Z,938.43
2019-01-19T09:50:30.016Z,938.45
2019-01-19T09:51:38.104Z,938.45
2019-01-19T09:52:46.129Z,938.50
2019-01-19T09:53:54.180Z,938.48
2019-01-19T09:55:02.225Z,938.51
2019-01-19T09:56:10.353Z,938.51
2019-01-19T09:57:18.309Z,938.50
2019-01-19T09:58:26.390Z,938.47
2019-01-19T09:59:34.436Z,938.48
2019-01-19T10:00:45.701Z,938.49
2019-01-19T10:01:50.628Z,938.45
2019-01-19T10:02:58.598Z,938.46
2019-01-19T10:04:06.648Z,938.46
2019-01-19T10:05:14.691Z,938.45
2019-01-19T10:06:22.789Z,938.44
2019-01-19T10:07:30.778Z,938.44
2019-01-19T10:08:38.860Z,938.43
2019-01-19T10:09:46.914Z,938.43
2019-01-19T10:10:54.953Z,938.40
2019-01-19T10:12:03.105Z,938.41
2019-01-19T10:13:11.063Z,938.43
2019-01-19T10:14:19.120Z,938.45
2019-01-19T10:15:27.172Z,938.47
2019-01-19T10:16:35.337Z,938.43
2019-01-19T10:17:43.405Z,938.42
2019-01-19T10:18:51.322Z,938.44
2019-01-19T10:19:59.405Z,938.41
2019-01-19T10:21:07.444Z,938.36
2019-01-19T10:22:15.502Z,938.39
2019-01-19T10:23:23.555Z,938.37
2019-01-19T10:24:31.608Z,938.33
2019-01-19T10:25:39.661Z,938.30
2019-01-19T10:26:47.762Z,938.28
2019-01-19T10:27:55.789Z,938.36
2019-01-19T10:29:03.824Z,938.34
2019-01-19T10:30:11.875Z,938.31
2019-01-19T10:31:19.925Z,938.38
2019-01-19T10:32:27.986Z,938.36
2019-01-19T10:33:36.035Z,938.37
2019-01-19T10:34:44.094Z,938.43
2019-01-19T10:35:52.140Z,938.45
2019-01-19T10:37:00.234Z,938.39
2019-01-19T10:38:08.242Z,938.33
2019-01-19T10:39:16.332Z,938.36
2019-01-19T10:40:24.360Z,938.31
2019-01-19T10:41:32.517Z,938.33
2019-01-19T10:42:40.485Z,938.29
2019-01-19T10:43:49.345Z,938.26
2019-01-19T10:44:56.737Z,938.28
2019-01-19T10:46:04.618Z,938.30
2019-01-19T10:47:12.738Z,938.28
2019-01-19T10:48:20.758Z,938.31
2019-01-19T10:49:28.789Z,938.31
2019-01-19T10:50:36.838Z,938.31
2019-01-19T10:51:45.262Z,938.27
2019-01-19T10:52:52.968Z,938.23
2019-01-19T10:54:01.001Z,938.24
2019-01-19T10:55:09.071Z,938.22
2019-01-19T10:56:17.109Z,938.25
2019-01-19T10:57:25.221Z,938.18
2019-01-19T10:58:33.233Z,938.21
2019-01-19T10:59:41.262Z,938.21
2019-01-19T11:00:49.335Z,938.20
2019-01-19T11:01:57.502Z,938.17
2019-01-19T11:03:05.478Z,938.15
2019-01-19T11:04:13.533Z,938.17
2019-01-19T11:05:21.546Z,938.09
2019-01-19T11:06:29.611Z,938.14
2019-01-19T11:07:37.757Z,938.10
2019-01-19T11:08:45.714Z,938.03
2019-01-19T11:09:53.765Z,938.04
2019-01-19T11:11:01.814Z,938.04
2019-01-19T11:12:09.929Z,938.01
2019-01-19T11:13:17.934Z,937.99
2019-01-19T11:14:25.989Z,938.00
2019-01-19T11:15:34.032Z,937.95
2019-01-19T11:16:42.106Z,937.97
2019-01-19T11:17:50.239Z,937.98
2019-01-19T11:18:58.209Z,937.98
2019-01-19T11:20:06.280Z,937.97
2019-01-19T11:21:14.333Z,937.94
2019-01-19T11:22:22.456Z,937.96
2019-01-19T11:23:30.423Z,937.90
2019-01-19T11:24:38.475Z,937.94
2019-01-19T11:25:46.552Z,937.89
2019-01-19T11:26:54.573Z,937.90
2019-01-19T11:28:02.666Z,937.91
2019-01-19T11:29:10.694Z,937.89
2019-01-19T11:30:18.760Z,937.89
2019-01-19T11:31:26.811Z,937.87
2019-01-19T11:32:34.909Z,937.84
2019-01-19T11:33:42.962Z,937.85
2019-01-19T11:34:51.248Z,937.79
2019-01-19T11:35:59.035Z,937.83
2019-01-19T11:37:07.443Z,937.87
2019-01-19T11:38:20.013Z,937.82
2019-01-19T11:39:23.203Z,937.81
2019-01-19T11:40:31.242Z,937.72
2019-01-19T11:41:39.461Z,937.75
2019-01-19T11:42:47.387Z,937.72
2019-01-19T11:43:55.412Z,937.75
2019-01-19T11:45:05.218Z,937.74
2019-01-19T11:46:11.614Z,937.72
2019-01-19T11:47:19.579Z,937.70
2019-01-19T11:48:27.714Z,937.74
2019-01-19T11:49:35.687Z,937.71
2019-01-19T11:50:43.928Z,937.65
2019-01-19T11:51:51.800Z,937.70
2019-01-19T11:52:59.890Z,937.73
2019-01-19T11:54:07.899Z,937.67
2019-01-19T11:55:15.979Z,937.66
2019-01-19T11:56:24.007Z,937.64
2019-01-19T11:57:32.118Z,937.64
2019-01-19T11:58:40.180Z,937.59
2019-01-19T11:59:48.185Z,937.60
2019-01-19T12:00:56.243Z,937.57
2019-01-19T12:02:04.286Z,937.59
2019-01-19T12:03:12.385Z,937.58
2019-01-19T12:04:20.761Z,937.56
2019-01-19T12:05:28.449Z,937.54
2019-01-19T12:06:36.512Z,937.50
2019-01-19T12:07:44.574Z,937.52
2019-01-19T12:08:52.659Z,937.46
2019-01-19T12:10:00.647Z,937.55
2019-01-19T12:11:08.730Z,937.47
2019-01-19T12:12:16.784Z,937.47
2019-01-19T12:13:24.892Z,937.45
2019-01-19T12:14:32.885Z,937.46
2019-01-19T12:15:40.928Z,937.48
2019-01-19T12:16:49.013Z,937.42
2019-01-19T12:17:57.046Z,937.37
2019-01-19T12:19:05.459Z,937.35
2019-01-19T12:20:13.277Z,937.36
2019-01-19T12:21:21.541Z,937.39
2019-01-19T12:22:29.265Z,937.40
2019-01-19T12:23:37.384Z,937.40
2019-01-19T12:24:45.375Z,937.35
2019-01-19T12:25:53.440Z,937.33
2019-01-19T12:27:01.474Z,937.30
2019-01-19T12:28:09.556Z,937.28
2019-01-19T12:29:17.599Z,937.30
2019-01-19T12:30:25.656Z,937.30
2019-01-19T12:31:33.706Z,937.30
2019-01-19T12:32:41.757Z,937.31
2019-01-19T12:33:50.486Z,937.28
2019-01-19T12:34:58.125Z,937.28
2019-01-19T12:36:06.034Z,937.27
2019-01-19T12:37:13.978Z,937.30
2019-01-19T12:38:26.699Z,937.27
2019-01-19T12:39:30.101Z,937.27
2019-01-19T12:40:38.162Z,937.28
2019-01-19T12:41:46.202Z,937.25
2019-01-19T12:42:54.266Z,937.24
2019-01-19T12:44:02.371Z,937.26
2019-01-19T12:45:10.367Z,937.17
2019-01-19T12:46:18.436Z,937.17
2019-01-19T12:47:26.493Z,937.18
2019-01-19T12:48:34.629Z,937.22
2019-01-19T12:49:42.599Z,937.16
2019-01-19T12:50:50.622Z,937.13
2019-01-19T12:51:58.801Z,937.13
2019-01-19T12:53:06.755Z,937.11
2019-01-19T12:54:14.867Z,937.13
2019-01-19T12:55:22.883Z,937.06
2019-01-19T12:56:30.910Z,937.07
2019-01-19T12:57:38.980Z,937.08
2019-01-19T12:58:47.147Z,937.09
2019-01-19T12:59:55.077Z,937.10
2019-01-19T13:01:03.147Z,937.05
2019-01-19T13:02:11.169Z,937.03
2019-01-19T13:03:19.255Z,937.04
2019-01-19T13:04:27.905Z,937.03
2019-01-19T13:05:35.374Z,937.00
2019-01-19T13:06:43.428Z,936.97
2019-01-19T13:07:51.536Z,936.98
2019-01-19T13:08:59.636Z,937.00
2019-01-19T13:10:08.161Z,936.99
2019-01-19T13:11:17.241Z,936.95
2019-01-19T13:12:23.705Z,936.92
2019-01-19T13:13:31.758Z,936.86
2019-01-19T13:14:39.852Z,936.89
2019-01-19T13:15:47.855Z,936.89
2019-01-19T13:16:55.921Z,936.86
2019-01-19T13:18:03.978Z,936.87
2019-01-19T13:19:12.100Z,936.85
2019-01-19T13:20:20.717Z,936.90
2019-01-19T13:21:28.135Z,936.87
2019-01-19T13:22:36.279Z,936.88
2019-01-19T13:23:45.219Z,936.85
2019-01-19T13:24:52.346Z,936.83
2019-01-19T13:26:00.356Z,936.79
2019-01-19T13:27:08.415Z,936.77
2019-01-19T13:28:16.488Z,936.78
2019-01-19T13:29:24.573Z,936.72
2019-01-19T13:30:32.603Z,936.76
2019-01-19T13:31:40.637Z,936.72
2019-01-19T13:32:48.701Z,936.69
2019-01-19T13:33:56.731Z,936.68
2019-01-19T13:35:04.866Z,936.69
2019-01-19T13:36:12.858Z,936.67
2019-01-19T13:37:20.896Z,936.65
2019-01-19T13:38:28.972Z,936.65
2019-01-19T13:39:37.080Z,936.64
2019-01-19T13:40:45.064Z,936.64
2019-01-19T13:41:53.152Z,936.65
2019-01-19T13:43:01.163Z,936.63
2019-01-19T13:44:09.242Z,936.66
2019-01-19T13:45:17.348Z,936.65
2019-01-19T13:46:25.364Z,936.66
2019-01-19T13:47:33.419Z,936.63
2019-01-19T13:48:41.451Z,936.61
2019-01-19T13:49:49.558Z,936.63
2019-01-19T13:50:57.585Z,936.65
2019-01-19T13:52:05.622Z,936.62
2019-01-19T13:53:13.801Z,936.58
2019-01-19T13:54:21.733Z,936.60
2019-01-19T13:55:29.842Z,936.59
2019-01-19T13:56:37.849Z,936.58
2019-01-19T13:57:45.931Z,936.55
2019-01-19T13:58:53.953Z,936.57
2019-01-19T14:00:02.058Z,936.55
2019-01-19T14:01:10.062Z,936.56
2019-01-19T14:02:19.352Z,936.51
2019-01-19T14:03:26.172Z,936.52
2019-01-19T14:04:34.241Z,936.53
2019-01-19T14:05:42.399Z,936.52
2019-01-19T14:06:50.342Z,936.50
2019-01-19T14:07:58.411Z,936.49
2019-01-19T14:09:06.538Z,936.48